createdAt,value
2019-03-21T00:00:11.807Z,10.27
2019-03-21T00:02:51.108Z,15.37
2019-03-21T00:05:32.283Z,11.37
2019-03-21T00:08:10.387Z,8.03
2019-03-21T00:11:33.804Z,8.00
2019-03-21T00:14:31.122Z,12.57
2019-03-21T00:17:09.015Z,12.50
2019-03-21T00:19:49.168Z,8.97
2019-03-21T00:22:27.812Z,7.30
2019-03-21T00:25:11.342Z,14.63
2019-03-21T00:27:49.438Z,11.47
2019-03-21T00:30:26.802Z,9.83
2019-03-21T00:33:03.202Z,10.67
2019-03-21T00:35:41.806Z,11.73
2019-03-21T00:38:19.395Z,9.47
2019-03-21T00:40:57.698Z,10.97
2019-03-21T00:43:35.186Z,12.03
2019-03-21T00:46:15.551Z,9.50
2019-03-21T00:48:54.813Z,11.77
2019-03-21T00:51:32.397Z,8.87
2019-03-21T00:54:12.133Z,13.37
2019-03-21T00:56:48.407Z,11.23
2019-03-21T00:59:27.827Z,8.40
2019-03-21T01:02:05.406Z,9.20
2019-03-21T01:04:43.122Z,10.43
2019-03-21T01:07:19.830Z,13.23
2019-03-21T01:09:55.424Z,9.87
2019-03-21T01:12:33.125Z,12.27
2019-03-21T01:18:51.413Z,10.77
2019-03-21T01:21:30.310Z,12.33
2019-03-21T01:24:09.038Z,11.70
2019-03-21T01:30:19.328Z,7.33
2019-03-21T01:32:57.431Z,7.07
2019-03-21T01:35:39.211Z,14.47
2019-03-21T01:41:46.222Z,7.50
2019-03-21T01:44:40.313Z,10.17
2019-03-21T01:47:10.418Z,11.60
2019-03-21T01:49:50.382Z,7.73
2019-03-21T01:52:31.327Z,10.30
2019-03-21T01:55:09.435Z,8.67
2019-03-21T01:57:50.407Z,12.27
2019-03-21T02:00:32.419Z,9.33
2019-03-21T02:03:14.438Z,10.80
2019-03-21T02:06:02.571Z,10.47
2019-03-21T02:08:43.305Z,16.13
2019-03-21T02:11:23.072Z,11.67
2019-03-21T02:14:04.231Z,6.80
2019-03-21T02:16:42.831Z,7.17
2019-03-21T02:19:24.334Z,10.43
2019-03-21T02:22:05.836Z,9.17
2019-03-21T02:24:43.203Z,11.03
2019-03-21T02:27:22.835Z,8.47
2019-03-21T02:30:03.511Z,14.67
2019-03-21T02:32:41.424Z,17.70
2019-03-21T02:35:32.637Z,11.30
2019-03-21T02:38:11.140Z,12.53
2019-03-21T02:40:49.516Z,8.67
2019-03-21T02:43:29.397Z,9.10
2019-03-21T02:46:09.564Z,14.40
2019-03-21T02:48:52.778Z,8.57
2019-03-21T02:51:32.728Z,8.80
2019-03-21T02:54:11.865Z,11.53
2019-03-21T02:56:49.782Z,14.63
2019-03-21T02:59:28.477Z,10.60
2019-03-21T03:02:07.421Z,9.37
2019-03-21T03:04:47.567Z,12.80
2019-03-21T03:07:30.223Z,12.03
2019-03-21T03:10:13.598Z,12.43
2019-03-21T03:12:56.649Z,9.93
2019-03-21T03:15:37.827Z,9.93
2019-03-21T03:18:18.765Z,12.70
2019-03-21T03:20:59.736Z,10.93
2019-03-21T03:23:40.717Z,11.60
2019-03-21T03:26:19.445Z,13.43
2019-03-21T03:29:02.908Z,12.73
2019-03-21T03:31:39.757Z,9.57
2019-03-21T03:34:19.706Z,13.40
2019-03-21T03:36:57.586Z,9.77
2019-03-21T03:39:38.782Z,8.90
2019-03-21T03:42:17.690Z,8.13
2019-03-21T03:44:58.898Z,11.33
2019-03-21T03:47:39.433Z,14.40
2019-03-21T03:50:19.585Z,18.83
2019-03-21T03:53:01.817Z,11.93
2019-03-21T03:55:45.423Z,12.73
2019-03-21T03:58:25.226Z,11.77
2019-03-21T04:01:05.759Z,13.03
2019-03-21T04:03:49.568Z,11.73
2019-03-21T04:06:29.547Z,15.67
2019-03-21T04:09:07.634Z,14.13
2019-03-21T04:11:47.778Z,13.70
2019-03-21T04:14:35.713Z,17.60
2019-03-21T04:17:16.687Z,13.20
2019-03-21T04:19:59.709Z,13.50
2019-03-21T04:22:36.787Z,14.53
2019-03-21T04:25:16.540Z,11.67
2019-03-21T04:27:58.536Z,10.73
2019-03-21T04:30:36.855Z,13.90
2019-03-21T04:33:17.221Z,9.60
2019-03-21T04:35:58.578Z,11.57
2019-03-21T04:38:40.781Z,14.57
2019-03-21T04:41:19.910Z,10.83
2019-03-21T04:43:57.198Z,12.97
2019-03-21T04:46:37.773Z,8.33
2019-03-21T04:49:23.046Z,10.30
2019-03-21T04:52:03.796Z,13.87
2019-03-21T04:54:45.225Z,16.87
2019-03-21T04:57:32.712Z,11.93
2019-03-21T05:00:15.732Z,12.77
2019-03-21T05:02:57.231Z,14.37
2019-03-21T05:05:36.856Z,12.17
2019-03-21T05:08:17.850Z,11.37
2019-03-21T05:11:02.691Z,13.13
2019-03-21T05:13:40.223Z,9.67
2019-03-21T05:16:18.716Z,13.63
2019-03-21T05:18:57.246Z,10.57
2019-03-21T05:21:37.983Z,10.77
2019-03-21T05:24:16.912Z,11.20
2019-03-21T05:26:59.722Z,10.70
2019-03-21T05:29:45.231Z,12.97
2019-03-21T05:32:24.735Z,11.87
2019-03-21T05:35:05.521Z,9.70
2019-03-21T05:37:43.243Z,12.30
2019-03-21T05:40:22.741Z,10.63
2019-03-21T05:43:32.815Z,9.47
2019-03-21T05:46:26.961Z,14.70
2019-03-21T05:49:02.524Z,12.50
2019-03-21T05:51:45.254Z,10.47
2019-03-21T05:54:31.840Z,14.40
2019-03-21T05:57:18.761Z,8.60
2019-03-21T05:59:56.450Z,14.93
2019-03-21T06:02:33.233Z,15.33
2019-03-21T06:05:12.670Z,9.27
2019-03-21T06:08:00.803Z,14.60
2019-03-21T06:10:38.904Z,12.77
2019-03-21T06:13:27.865Z,8.63
2019-03-21T06:16:09.661Z,14.40
2019-03-21T06:19:26.183Z,11.70
2019-03-21T06:26:20.605Z,11.83
2019-03-21T06:32:26.757Z,14.27
2019-03-21T06:38:26.672Z,10.67
2019-03-21T06:41:08.589Z,11.00
2019-03-21T06:43:49.379Z,9.60
2019-03-21T06:46:30.536Z,9.70
2019-03-21T06:49:13.562Z,12.50
2019-03-21T06:51:53.032Z,11.23
2019-03-21T06:54:42.494Z,11.30
2019-03-21T06:57:22.054Z,11.40
2019-03-21T07:00:04.419Z,9.93
2019-03-21T07:02:46.424Z,17.30
2019-03-21T07:05:28.423Z,13.53
2019-03-21T07:08:05.486Z,10.53
2019-03-21T07:10:46.667Z,11.03
2019-03-21T07:17:00.613Z,19.40
2019-03-21T07:19:35.148Z,10.83
2019-03-21T07:25:29.781Z,10.67
2019-03-21T07:31:33.173Z,9.33
2019-03-21T07:37:52.096Z,15.60
2019-03-21T07:40:28.330Z,17.50
2019-03-21T07:43:06.122Z,10.77
2019-03-21T07:45:42.083Z,10.73
2019-03-21T07:48:21.830Z,13.93
2019-03-21T07:50:57.872Z,9.53
2019-03-21T07:57:02.655Z,9.80
2019-03-21T07:59:39.926Z,13.23
2019-03-21T08:02:15.968Z,9.53
2019-03-21T08:04:52.854Z,9.90
2019-03-21T08:07:29.380Z,14.93
2019-03-21T08:10:18.753Z,14.63
2019-03-21T08:12:57.026Z,14.23
2019-03-21T08:15:32.060Z,12.27
2019-03-21T08:18:14.635Z,16.30
2019-03-21T08:20:57.155Z,12.90
2019-03-21T08:27:12.437Z,15.07
2019-03-21T08:33:31.726Z,12.50
2019-03-21T08:41:54.132Z,10.97
2019-03-21T08:44:37.051Z,13.67
2019-03-21T08:50:39.126Z,14.50
2019-03-21T08:53:13.125Z,9.87
2019-03-21T08:55:48.457Z,16.37
2019-03-21T08:58:25.334Z,11.20
2019-03-21T09:01:02.830Z,12.50
2019-03-21T09:03:41.544Z,10.63
2019-03-21T09:06:18.137Z,15.50
2019-03-21T09:08:53.704Z,11.93
2019-03-21T09:15:21.756Z,11.67
2019-03-21T09:18:11.179Z,13.37
2019-03-21T09:20:47.591Z,12.67
2019-03-21T09:23:25.132Z,11.83
2019-03-21T09:26:01.756Z,9.93
2019-03-21T09:32:06.749Z,9.87
2019-03-21T09:37:46.469Z,10.63
2019-03-21T09:43:52.148Z,10.80
2019-03-21T09:46:30.311Z,11.70
2019-03-21T09:49:06.611Z,11.23
2019-03-21T09:51:43.704Z,12.73
2019-03-21T09:54:23.071Z,11.40
2019-03-21T10:00:36.210Z,10.67
2019-03-21T10:03:05.740Z,7.97
2019-03-21T10:05:39.482Z,9.23
2019-03-21T10:11:46.191Z,12.37
2019-03-21T10:14:22.552Z,9.33
2019-03-21T10:16:58.222Z,11.30
2019-03-21T10:19:32.231Z,9.07
2019-03-21T10:22:07.433Z,10.13
2019-03-21T10:24:43.216Z,11.73
2019-03-21T10:27:19.554Z,10.43
2019-03-21T10:29:56.431Z,8.97
2019-03-21T10:36:08.959Z,9.30
2019-03-21T10:42:17.618Z,8.77
2019-03-21T10:44:53.463Z,11.00
2019-03-21T10:47:29.713Z,13.70
2019-03-21T10:50:06.244Z,10.50
2019-03-21T10:52:42.852Z,11.60
2019-03-21T10:58:49.459Z,9.33
2019-03-21T11:01:27.761Z,8.13
2019-03-21T11:04:06.536Z,8.97
2019-03-21T11:10:17.790Z,9.07
2019-03-21T11:16:31.537Z,9.50
2019-03-21T11:19:13.748Z,10.50
2019-03-21T11:22:05.698Z,10.37
2019-03-21T11:28:03.763Z,10.13
2019-03-21T11:30:41.307Z,8.50
2019-03-21T11:33:21.214Z,8.27
2019-03-21T11:39:29.636Z,7.33
2019-03-21T11:42:09.597Z,11.87
2019-03-21T11:44:44.831Z,9.43
2019-03-21T11:47:23.760Z,7.57
2019-03-21T11:50:00.846Z,8.17
2019-03-21T11:52:41.112Z,7.73
2019-03-21T11:55:17.276Z,9.23
2019-03-21T12:01:22.611Z,11.83
2019-03-21T12:04:03.568Z,9.53
2019-03-21T12:06:38.830Z,8.87
2019-03-21T12:09:20.275Z,8.33
2019-03-21T12:11:58.102Z,9.00
2019-03-21T12:14:43.267Z,9.27
2019-03-21T12:17:18.841Z,13.10
2019-03-21T12:19:57.767Z,8.57
2019-03-21T12:22:42.227Z,7.37
2019-03-21T12:25:16.277Z,8.80
2019-03-21T12:27:53.260Z,7.87
2019-03-21T12:30:37.764Z,11.53
2019-03-21T12:33:13.804Z,7.97
2019-03-21T12:35:52.750Z,10.73
2019-03-21T12:38:29.811Z,11.17
2019-03-21T12:41:09.146Z,10.93
2019-03-21T12:43:44.791Z,8.77
2019-03-21T12:46:22.487Z,11.93
2019-03-21T12:49:06.755Z,7.80
2019-03-21T12:51:45.605Z,8.70
2019-03-21T12:54:30.938Z,9.80
2019-03-21T12:57:07.814Z,8.50
2019-03-21T12:59:44.482Z,8.23
2019-03-21T13:02:32.298Z,12.83
2019-03-21T13:05:04.852Z,8.27
2019-03-21T13:07:47.199Z,10.57
2019-03-21T13:10:21.614Z,7.43
2019-03-21T13:13:09.758Z,8.40
2019-03-21T13:15:52.787Z,10.73
2019-03-21T13:18:29.278Z,7.27
2019-03-21T13:21:07.964Z,8.30
2019-03-21T13:23:45.663Z,9.03
2019-03-21T13:26:22.741Z,9.57
2019-03-21T13:29:03.246Z,7.37
2019-03-21T13:31:42.642Z,10.30
2019-03-21T13:34:20.746Z,10.53
2019-03-21T13:36:57.275Z,9.43
2019-03-21T13:39:34.705Z,15.87
2019-03-21T13:42:10.965Z,9.23
2019-03-21T13:44:50.708Z,7.80
2019-03-21T13:47:26.765Z,12.13
2019-03-21T13:50:13.678Z,10.33
2019-03-21T13:52:46.665Z,17.20
2019-03-21T13:55:30.504Z,11.50
2019-03-21T13:58:20.497Z,10.87
2019-03-21T14:01:01.886Z,12.83
2019-03-21T14:03:39.578Z,9.23
2019-03-21T14:06:14.599Z,12.93
2019-03-21T14:08:50.871Z,12.67
2019-03-21T14:11:28.561Z,10.20
2019-03-21T14:14:03.809Z,16.53
2019-03-21T14:16:40.887Z,10.40
2019-03-21T14:19:17.979Z,7.23
2019-03-21T14:21:53.815Z,12.63
2019-03-21T14:24:32.328Z,7.87
2019-03-21T14:27:09.819Z,13.00
2019-03-21T14:29:46.926Z,10.40
2019-03-21T14:32:25.846Z,9.67
2019-03-21T14:35:08.644Z,11.70
2019-03-21T14:37:44.320Z,7.90
2019-03-21T14:40:18.503Z,10.23
2019-03-21T14:42:59.895Z,8.40
2019-03-21T14:45:37.784Z,9.70
2019-03-21T14:48:14.668Z,7.90
2019-03-21T14:50:53.586Z,8.87
2019-03-21T14:53:39.530Z,11.93
2019-03-21T14:56:14.508Z,8.20
2019-03-21T14:58:53.318Z,7.97
2019-03-21T15:01:29.318Z,14.13
2019-03-21T15:04:06.775Z,8.47
2019-03-21T15:06:43.295Z,9.43
2019-03-21T15:09:24.311Z,7.67
2019-03-21T15:12:00.467Z,11.47
2019-03-21T15:14:40.245Z,10.03
2019-03-21T15:17:21.199Z,9.03
2019-03-21T15:19:58.316Z,8.70
2019-03-21T15:22:33.724Z,9.50
2019-03-21T15:25:13.309Z,10.40
2019-03-21T15:27:48.923Z,7.83
2019-03-21T15:30:25.785Z,12.83
2019-03-21T15:33:07.781Z,8.63
2019-03-21T15:35:47.524Z,10.73
2019-03-21T15:38:27.420Z,10.40
2019-03-21T15:41:01.317Z,9.37
2019-03-21T15:43:36.519Z,8.70
2019-03-21T15:46:14.636Z,15.03
2019-03-21T15:48:50.273Z,14.17
2019-03-21T15:51:32.676Z,14.00
2019-03-21T15:54:09.161Z,9.10
2019-03-21T15:56:49.932Z,8.27
2019-03-21T15:59:27.518Z,8.90
2019-03-21T16:02:05.922Z,8.27
2019-03-21T16:04:42.934Z,13.97
2019-03-21T16:11:00.547Z,8.33
2019-03-21T16:13:39.484Z,8.20
2019-03-21T16:16:29.875Z,9.03
2019-03-21T16:19:08.394Z,8.17
2019-03-21T16:25:15.413Z,10.10
2019-03-21T16:27:52.937Z,12.80
2019-03-21T16:30:37.157Z,14.57
2019-03-21T16:36:42.698Z,9.17
2019-03-21T16:39:38.321Z,13.80
2019-03-21T16:42:26.593Z,8.17
2019-03-21T17:03:28.118Z,9.53
2019-03-21T17:12:05.880Z,16.83
2019-03-21T17:14:44.775Z,11.03
2019-03-21T17:20:40.518Z,12.07
2019-03-21T17:26:45.492Z,10.30
2019-03-21T17:29:22.348Z,13.03
2019-03-21T17:31:59.221Z,10.20
2019-03-21T17:34:38.356Z,14.20
2019-03-21T17:37:15.451Z,20.13
2019-03-21T17:39:50.943Z,10.10
2019-03-21T17:42:26.530Z,8.63
2019-03-21T17:45:03.945Z,11.73
2019-03-21T17:47:40.486Z,10.50
2019-03-21T17:50:17.154Z,8.20
2019-03-21T17:52:53.419Z,12.37
2019-03-21T17:55:29.951Z,12.13
2019-03-21T17:58:05.326Z,8.53
2019-03-21T18:00:42.450Z,7.50
2019-03-21T18:03:24.650Z,8.90
2019-03-21T18:09:06.214Z,9.57
2019-03-21T18:15:10.145Z,8.80
2019-03-21T18:17:47.844Z,17.13
2019-03-21T18:24:06.449Z,8.83
2019-03-21T18:30:23.776Z,14.67
2019-03-21T18:36:39.564Z,10.23
2019-03-21T18:49:28.019Z,8.40
2019-03-21T18:52:04.853Z,15.73
2019-03-21T18:58:08.385Z,8.33
2019-03-21T19:04:01.572Z,8.93
2019-03-21T19:09:49.197Z,15.00
2019-03-21T19:12:28.584Z,10.17
2019-03-21T19:15:09.968Z,12.40
2019-03-21T19:17:45.601Z,9.17
2019-03-21T19:20:23.052Z,11.57
2019-03-21T19:22:59.113Z,9.27
2019-03-21T19:25:34.972Z,9.90
2019-03-21T19:28:13.072Z,17.17
2019-03-21T19:30:48.583Z,12.07
2019-03-21T19:33:24.607Z,15.73
2019-03-21T19:36:02.892Z,13.83
2019-03-21T19:38:38.961Z,12.80
2019-03-21T19:41:16.588Z,13.50
2019-03-21T19:43:53.105Z,17.20
2019-03-21T19:49:56.839Z,22.10
2019-03-21T19:56:08.457Z,23.83
2019-03-21T19:58:42.147Z,34.63
2019-03-21T20:01:17.786Z,22.97
2019-03-21T20:07:22.586Z,15.30
2019-03-21T20:13:29.946Z,22.20
2019-03-21T20:16:06.416Z,22.77
2019-03-21T20:18:44.331Z,12.87
2019-03-21T20:21:23.239Z,14.67
2019-03-21T20:24:00.729Z,14.83
2019-03-21T20:26:41.308Z,18.80
2019-03-21T20:29:23.407Z,19.77
2019-03-21T20:32:00.890Z,19.63
2019-03-21T20:34:36.998Z,16.77
2019-03-21T20:37:16.601Z,18.57
2019-03-21T20:39:53.774Z,22.93
2019-03-21T20:42:33.056Z,18.93
2019-03-21T20:45:19.606Z,17.87
2019-03-21T20:47:54.121Z,14.77
2019-03-21T20:50:30.713Z,16.50
2019-03-21T20:53:05.729Z,17.70
2019-03-21T20:55:53.447Z,18.30
2019-03-21T20:58:25.218Z,19.27
2019-03-21T21:01:01.723Z,15.73
2019-03-21T21:07:06.019Z,14.90
2019-03-21T21:09:42.739Z,17.97
2019-03-21T21:16:00.343Z,17.93
2019-03-21T21:22:19.226Z,17.30
2019-03-21T21:24:55.281Z,14.43
2019-03-21T21:27:32.567Z,18.47
2019-03-21T21:33:48.375Z,20.40
2019-03-21T21:36:28.511Z,18.90
2019-03-21T21:39:04.607Z,17.00
2019-03-21T21:41:40.086Z,16.10
2019-03-21T21:44:20.386Z,16.50
2019-03-21T21:50:25.052Z,17.80
2019-03-21T21:56:29.275Z,20.03
2019-03-21T21:59:12.514Z,16.10
2019-03-21T22:01:49.371Z,22.93
2019-03-21T22:07:42.872Z,18.57
2019-03-21T22:10:20.354Z,15.30
2019-03-21T22:12:57.136Z,22.10
2019-03-21T22:15:48.305Z,19.30
2019-03-21T22:18:13.179Z,18.57
2019-03-21T22:20:49.143Z,18.93
2019-03-21T22:23:24.527Z,18.27
2019-03-21T22:26:01.405Z,17.60
2019-03-21T22:28:42.403Z,18.00
2019-03-21T22:31:18.433Z,17.10
2019-03-21T22:33:55.168Z,15.20
2019-03-21T22:36:30.175Z,16.60
2019-03-21T22:39:09.887Z,17.37
2019-03-21T22:41:49.150Z,18.57
2019-03-21T22:44:25.890Z,21.10
2019-03-21T22:47:03.585Z,17.67
2019-03-21T22:49:39.644Z,20.47
2019-03-21T22:52:15.500Z,18.97
2019-03-21T22:55:02.828Z,18.80
2019-03-21T22:57:37.855Z,17.80
2019-03-21T23:00:14.523Z,21.10
2019-03-21T23:02:51.607Z,16.30
2019-03-21T23:05:41.338Z,16.63
2019-03-21T23:08:17.861Z,17.77
2019-03-21T23:10:54.931Z,15.10
2019-03-21T23:13:31.811Z,18.87
2019-03-21T23:16:15.652Z,20.70
2019-03-21T23:18:52.733Z,15.50
2019-03-21T23:21:30.838Z,16.53
2019-03-21T23:24:05.666Z,14.53
2019-03-21T23:26:52.489Z,16.83
2019-03-21T23:29:19.627Z,27.67
2019-03-21T23:31:56.709Z,18.23
2019-03-21T23:34:35.643Z,17.07
2019-03-21T23:37:12.369Z,14.03
2019-03-21T23:39:48.566Z,15.60
2019-03-21T23:42:26.881Z,14.10
2019-03-21T23:45:03.549Z,16.97
2019-03-21T23:47:41.860Z,21.10
2019-03-21T23:50:17.778Z,18.83
2019-03-21T23:52:57.867Z,20.57
2019-03-21T23:55:34.961Z,16.90
2019-03-21T23:58:12.247Z,20.17
